Terminal Aerodrome Forecast
Issued by NWS

Home | Current Version | Previous Version | Text Only | Print | Product List | Glossary On
Versions: 1 2 3 4 5 6 7 8 9 10 11 12 13 14 15 16 17 18 19 20 21 22 23 24 25 26 27 28 29 30
000
FTUS46 KLOX 222336
TAFSBA
TAF
KSBA 222336Z 2300/2324 17009KT P6SM SCT007
     FM230100 19008KT 4SM BR OVC007
     FM230300 VRB03KT 1 1/2SM BR VCFG OVC003
     FM230700 11004KT 1/2SM FG VV002
     FM231500 14005KT 4SM BR BKN004
     FM231800 17007KT P6SM SCT008=

USA.gov is the U.S. government's official web portal to all federal, state and local government web resources and services.